createdAt,value
2018-02-13T00:01:48.059Z,92.70
2018-02-13T00:04:16.343Z,92.70
2018-02-13T00:06:43.817Z,92.70
2018-02-13T00:09:11.321Z,92.80
2018-02-13T00:11:38.856Z,92.90
2018-02-13T00:14:06.336Z,92.70
2018-02-13T00:16:33.805Z,92.50
2018-02-13T00:19:01.410Z,92.80
2018-02-13T00:21:28.871Z,92.50
2018-02-13T00:23:56.374Z,92.40
2018-02-13T00:26:23.834Z,92.40
2018-02-13T00:28:51.353Z,92.30
2018-02-13T00:31:18.835Z,92.20
2018-02-13T00:33:46.341Z,92.10
2018-02-13T00:36:13.820Z,92.40
2018-02-13T00:38:41.399Z,92.40
2018-02-13T00:41:08.863Z,92.40
2018-02-13T00:43:36.360Z,92.70
2018-02-13T00:46:04.612Z,92.50
2018-02-13T00:48:32.227Z,92.50
2018-02-13T00:50:59.788Z,92.80
2018-02-13T00:53:27.299Z,92.80
2018-02-13T00:55:54.758Z,92.70
2018-02-13T00:58:22.268Z,92.50
2018-02-13T01:00:49.734Z,92.30
2018-02-13T01:03:17.229Z,92.30
2018-02-13T01:05:44.710Z,92.20
2018-02-13T01:08:13.012Z,92.10
2018-02-13T01:10:40.475Z,92.10
2018-02-13T01:13:07.939Z,92.10
2018-02-13T01:15:35.486Z,92.10
2018-02-13T01:18:02.950Z,92.40
2018-02-13T01:20:30.447Z,92.40
2018-02-13T01:22:57.936Z,92.60
2018-02-13T01:25:26.217Z,92.40
2018-02-13T01:27:53.716Z,92.40
2018-02-13T01:30:21.310Z,92.40
2018-02-13T01:32:48.739Z,92.30
2018-02-13T01:35:16.265Z,92.40
2018-02-13T01:37:43.745Z,92.60
2018-02-13T01:40:11.264Z,92.70
2018-02-13T01:42:39.492Z,92.60
2018-02-13T01:45:06.987Z,92.60
2018-02-13T01:47:35.226Z,92.30
2018-02-13T01:50:14.598Z,92.30
2018-02-13T01:52:42.840Z,92.50
2018-02-13T01:55:10.351Z,92.50
2018-02-13T01:57:38.688Z,92.70
2018-02-13T02:00:06.349Z,92.90
2018-02-13T02:02:33.810Z,92.90
2018-02-13T02:05:01.286Z,92.80
2018-02-13T02:07:29.555Z,92.80
2018-02-13T02:09:57.804Z,92.70
2018-02-13T02:12:25.316Z,92.70
2018-02-13T02:14:52.792Z,92.60
2018-02-13T02:17:20.342Z,92.50
2018-02-13T02:19:47.774Z,92.40
2018-02-13T02:22:16.072Z,92.30
2018-02-13T02:24:43.539Z,92.30
2018-02-13T02:27:11.091Z,92.30
2018-02-13T02:29:38.554Z,92.40
2018-02-13T02:32:06.057Z,92.60
2018-02-13T02:34:33.535Z,92.70
2018-02-13T02:37:01.790Z,92.70
2018-02-13T02:39:29.265Z,92.70
2018-02-13T02:41:57.517Z,93.00
2018-02-13T02:44:24.983Z,93.00
2018-02-13T02:46:52.504Z,92.90
2018-02-13T02:49:19.970Z,92.70
2018-02-13T02:51:47.455Z,92.80
2018-02-13T02:54:14.919Z,92.90
2018-02-13T02:56:42.392Z,92.80
2018-02-13T02:59:10.655Z,92.70
2018-02-13T03:01:38.114Z,92.70
2018-02-13T03:04:06.386Z,92.80
2018-02-13T03:06:33.851Z,92.80
2018-02-13T03:09:02.117Z,92.90
2018-02-13T03:11:29.581Z,92.90
2018-02-13T03:13:57.847Z,92.70
2018-02-13T03:16:25.310Z,92.70
2018-02-13T03:18:53.584Z,92.90
2018-02-13T03:21:21.190Z,92.90
2018-02-13T03:23:48.699Z,92.90
2018-02-13T03:26:16.202Z,92.80
2018-02-13T03:28:43.690Z,92.90
2018-02-13T03:31:11.160Z,92.90
2018-02-13T03:33:38.842Z,92.90
2018-02-13T03:36:06.308Z,93.10
2018-02-13T03:38:34.561Z,93.00
2018-02-13T03:41:02.084Z,93.00
2018-02-13T03:43:29.555Z,93.10
2018-02-13T03:45:57.049Z,92.90
2018-02-13T03:48:24.505Z,92.80
2018-02-13T03:50:52.775Z,92.70
2018-02-13T03:53:20.278Z,92.60
2018-02-13T03:55:47.782Z,92.30
2018-02-13T03:58:15.265Z,92.30
2018-02-13T04:00:43.524Z,92.10
2018-02-13T04:03:11.002Z,92.10
2018-02-13T04:05:39.280Z,91.80
2018-02-13T04:08:07.567Z,91.70
2018-02-13T04:10:35.072Z,91.70
2018-02-13T04:13:02.597Z,91.60
2018-02-13T04:15:30.064Z,91.60
2018-02-13T04:17:57.562Z,91.70
2018-02-13T04:20:25.027Z,91.60
2018-02-13T04:22:52.540Z,91.80
2018-02-13T04:25:20.093Z,92.10
2018-02-13T04:27:47.588Z,91.70
2018-02-13T04:30:15.059Z,91.70
2018-02-13T04:32:42.550Z,91.70
2018-02-13T04:35:10.035Z,91.80
2018-02-13T04:37:37.556Z,91.80
2018-02-13T04:40:05.048Z,92.10
2018-02-13T04:42:32.534Z,92.10
2018-02-13T04:45:00.027Z,92.00
2018-02-13T04:47:28.308Z,92.10
2018-02-13T04:49:55.774Z,92.10
2018-02-13T04:52:23.275Z,92.20
2018-02-13T04:54:50.787Z,92.30
2018-02-13T04:57:19.052Z,92.30
2018-02-13T04:59:47.315Z,92.50
2018-02-13T05:02:15.603Z,92.50
2018-02-13T05:04:44.542Z,92.70
2018-02-13T05:07:12.026Z,92.60
2018-02-13T05:09:39.546Z,92.80
2018-02-13T05:12:07.064Z,92.90
2018-02-13T05:14:35.290Z,93.10
2018-02-13T05:17:02.777Z,93.10
2018-02-13T05:19:30.291Z,92.70
2018-02-13T05:21:57.780Z,92.60
2018-02-13T05:24:25.299Z,92.50
2018-02-13T05:26:52.771Z,92.50
2018-02-13T05:29:20.290Z,92.40
2018-02-13T05:31:48.540Z,92.40
2018-02-13T05:34:16.037Z,92.40
2018-02-13T05:36:43.517Z,92.40
2018-02-13T05:39:11.026Z,92.40
2018-02-13T05:41:38.490Z,92.30
2018-02-13T05:44:06.761Z,92.50
2018-02-13T05:46:34.235Z,92.50
2018-02-13T05:49:01.726Z,92.30
2018-02-13T05:51:29.214Z,92.30
2018-02-13T05:53:56.740Z,92.20
2018-02-13T05:56:24.214Z,92.20
2018-02-13T05:58:51.715Z,92.20
2018-02-13T06:01:19.968Z,92.80
2018-02-13T06:03:47.493Z,92.80
2018-02-13T06:06:14.962Z,92.60
2018-02-13T06:08:42.501Z,92.70
2018-02-13T06:11:09.972Z,92.40
2018-02-13T06:13:37.462Z,92.40
2018-02-13T06:16:04.941Z,92.30
2018-02-13T06:18:33.423Z,92.50
2018-02-13T06:21:02.145Z,92.40
2018-02-13T06:23:29.624Z,92.40
2018-02-13T06:25:57.124Z,92.50
2018-02-13T06:28:25.367Z,92.70
2018-02-13T06:30:52.875Z,92.70
2018-02-13T06:33:20.339Z,92.70
2018-02-13T06:35:47.847Z,92.70
2018-02-13T06:38:15.336Z,92.70
2018-02-13T06:40:43.611Z,92.80
2018-02-13T06:43:11.860Z,92.90
2018-02-13T06:45:39.414Z,92.80
2018-02-13T06:48:06.888Z,93.10
2018-02-13T06:50:34.366Z,93.10
2018-02-13T06:53:02.626Z,92.90
2018-02-13T06:55:30.871Z,92.80
2018-02-13T06:57:58.370Z,92.70
2018-02-13T07:00:26.603Z,92.70
2018-02-13T07:02:54.098Z,92.70
2018-02-13T07:05:22.340Z,92.80
2018-02-13T07:07:49.840Z,92.80
2018-02-13T07:10:17.324Z,92.90
2018-02-13T07:12:44.823Z,93.10
2018-02-13T07:15:12.291Z,92.90
2018-02-13T07:17:39.798Z,92.70
2018-02-13T07:20:07.271Z,92.70
2018-02-13T07:22:34.766Z,93.00
2018-02-13T07:25:02.239Z,93.20
2018-02-13T07:27:30.526Z,93.40
2018-02-13T07:29:57.999Z,93.30
2018-02-13T07:32:25.518Z,93.40
2018-02-13T07:34:53.030Z,93.40
2018-02-13T07:37:20.504Z,93.20
2018-02-13T07:39:48.005Z,93.20
2018-02-13T07:42:16.232Z,93.20
2018-02-13T07:44:43.743Z,93.20
2018-02-13T07:47:11.980Z,92.90
2018-02-13T07:49:39.501Z,92.80
2018-02-13T07:52:06.997Z,92.60
2018-02-13T07:54:34.491Z,92.70
2018-02-13T07:57:02.723Z,92.70
2018-02-13T07:59:30.248Z,92.60
2018-02-13T08:01:57.745Z,92.90
2018-02-13T08:04:25.265Z,93.00
2018-02-13T08:06:52.719Z,93.10
2018-02-13T08:09:20.226Z,93.70
2018-02-13T08:11:47.693Z,94.30
2018-02-13T08:14:15.211Z,93.60
2018-02-13T08:16:42.689Z,92.90
2018-02-13T08:19:10.163Z,93.50
2018-02-13T08:21:37.654Z,92.20
2018-02-13T08:24:05.156Z,92.00
2018-02-13T08:26:32.656Z,93.50
2018-02-13T08:29:00.966Z,92.00
2018-02-13T08:31:28.493Z,92.00
2018-02-13T08:33:55.933Z,92.30
2018-02-13T08:36:23.423Z,91.90
2018-02-13T08:38:50.892Z,80.50
2018-02-13T08:41:18.412Z,80.80
2018-02-13T08:43:45.893Z,72.20
2018-02-13T08:46:14.189Z,63.60
2018-02-13T08:48:41.653Z,63.60
2018-02-13T08:51:09.144Z,60.50
2018-02-13T08:53:36.599Z,54.70
2018-02-13T08:56:04.112Z,53.70
2018-02-13T08:58:31.573Z,51.60
2018-02-13T09:00:59.067Z,50.20
2018-02-13T09:03:26.560Z,47.40
2018-02-13T09:05:54.815Z,46.40
2018-02-13T09:08:22.291Z,46.40
2018-02-13T09:10:50.706Z,44.60
2018-02-13T09:13:18.180Z,44.00
2018-02-13T09:15:45.652Z,43.40
2018-02-13T09:18:13.164Z,41.40
2018-02-13T09:20:40.618Z,41.10
2018-02-13T09:23:08.111Z,42.40
2018-02-13T09:25:35.610Z,39.60
2018-02-13T09:28:03.126Z,41.50
2018-02-13T09:30:30.597Z,44.40
2018-02-13T09:32:58.131Z,45.40
2018-02-13T09:35:25.609Z,45.50
2018-02-13T09:37:53.115Z,46.10
2018-02-13T09:40:21.440Z,45.30
2018-02-13T09:42:49.664Z,44.50
2018-02-13T09:45:17.179Z,44.50
2018-02-13T09:47:44.684Z,44.90
2018-02-13T09:50:12.927Z,45.90
2018-02-13T09:52:40.412Z,45.90
2018-02-13T09:55:08.678Z,44.30
2018-02-13T09:57:36.133Z,44.20
2018-02-13T10:00:03.659Z,44.00
2018-02-13T10:02:31.149Z,42.90
2018-02-13T10:04:58.650Z,42.00
2018-02-13T10:07:26.134Z,39.90
2018-02-13T10:09:54.412Z,39.00
2018-02-13T10:12:21.893Z,38.90
2018-02-13T10:14:49.401Z,38.30
2018-02-13T10:17:16.862Z,37.90
2018-02-13T10:19:44.369Z,37.40
2018-02-13T10:22:11.853Z,38.30
2018-02-13T10:24:40.125Z,37.90
2018-02-13T10:27:08.360Z,39.60
2018-02-13T10:29:35.853Z,39.60
2018-02-13T10:32:04.097Z,40.20
2018-02-13T10:34:35.473Z,40.20
2018-02-13T10:37:02.972Z,40.10
2018-02-13T10:39:30.516Z,39.80
2018-02-13T10:41:57.982Z,39.60
2018-02-13T10:44:25.480Z,38.20
2018-02-13T10:46:52.967Z,36.20
2018-02-13T10:49:20.489Z,36.00
2018-02-13T10:51:47.958Z,36.50
2018-02-13T10:54:15.488Z,35.30
2018-02-13T10:56:42.960Z,34.80
2018-02-13T10:59:10.498Z,35.40
2018-02-13T11:01:37.982Z,35.10
2018-02-13T11:04:05.442Z,34.40
2018-02-13T11:06:32.948Z,33.20
2018-02-13T11:09:00.430Z,32.30
2018-02-13T11:11:27.922Z,31.30
2018-02-13T11:13:55.400Z,31.40
2018-02-13T11:16:23.669Z,30.00
2018-02-13T11:18:51.148Z,29.90
2018-02-13T11:21:19.422Z,29.10
2018-02-13T11:23:47.645Z,29.30
2018-02-13T11:26:15.132Z,29.30
2018-02-13T11:28:42.617Z,30.50
2018-02-13T11:31:10.881Z,29.50
2018-02-13T11:33:39.121Z,30.00
2018-02-13T11:36:06.633Z,30.00
2018-02-13T11:38:34.098Z,30.60
2018-02-13T11:41:01.662Z,30.70
2018-02-13T11:43:29.120Z,28.60
2018-02-13T11:45:56.637Z,29.70
2018-02-13T11:48:24.117Z,29.70
2018-02-13T11:50:52.383Z,29.40
2018-02-13T11:53:20.657Z,29.40
2018-02-13T11:55:48.890Z,29.70
2018-02-13T11:58:16.400Z,29.70
2018-02-13T12:00:44.678Z,29.10
2018-02-13T12:03:12.150Z,29.00
2018-02-13T12:05:39.711Z,29.10
2018-02-13T12:08:07.172Z,28.50
2018-02-13T12:10:34.653Z,28.40
2018-02-13T12:13:02.153Z,27.80
2018-02-13T12:15:30.414Z,27.20
2018-02-13T12:17:57.885Z,27.20
2018-02-13T12:20:26.155Z,25.50
2018-02-13T12:22:54.423Z,26.20
2018-02-13T12:25:33.620Z,25.90
2018-02-13T12:28:01.082Z,25.60
2018-02-13T12:30:28.569Z,26.50
2018-02-13T12:32:56.080Z,26.50
2018-02-13T12:35:23.550Z,25.60
2018-02-13T12:37:51.050Z,23.90
2018-02-13T12:40:18.510Z,23.90
2018-02-13T12:42:46.006Z,25.20
2018-02-13T12:45:13.478Z,25.00
2018-02-13T12:47:40.978Z,25.30
2018-02-13T12:50:08.444Z,25.80
2018-02-13T12:52:35.934Z,25.90
2018-02-13T12:55:03.401Z,25.90
2018-02-13T12:57:30.903Z,24.70
2018-02-13T12:59:58.373Z,24.10
2018-02-13T13:02:26.636Z,23.90
2018-02-13T13:04:54.109Z,23.70
2018-02-13T13:07:22.381Z,23.60
2018-02-13T13:09:49.856Z,23.60
2018-02-13T13:12:18.138Z,23.60
2018-02-13T13:14:45.603Z,23.60
2018-02-13T13:17:13.061Z,24.70
2018-02-13T13:19:40.579Z,24.50
2018-02-13T13:22:08.043Z,24.10
2018-02-13T13:24:35.557Z,24.90
2018-02-13T13:27:03.011Z,24.80
2018-02-13T13:29:30.502Z,24.00
2018-02-13T13:31:57.959Z,24.30
2018-02-13T13:34:25.462Z,24.60
2018-02-13T13:36:52.935Z,25.50
2018-02-13T13:39:20.455Z,26.20
2018-02-13T13:41:48.690Z,26.10
2018-02-13T13:44:16.224Z,26.00
2018-02-13T13:46:43.690Z,25.80
2018-02-13T13:49:11.185Z,27.80
2018-02-13T13:51:38.654Z,28.40
2018-02-13T13:54:06.169Z,27.20
2018-02-13T13:56:33.630Z,25.10
2018-02-13T13:59:01.136Z,24.90
2018-02-13T14:01:29.406Z,23.90
2018-02-13T14:03:56.901Z,23.90
2018-02-13T14:06:24.364Z,23.20
2018-02-13T14:08:51.983Z,23.30
2018-02-13T14:11:19.459Z,23.20
2018-02-13T14:13:47.703Z,23.30
2018-02-13T14:16:15.966Z,22.90
2018-02-13T14:18:43.436Z,22.90
2018-02-13T14:21:10.942Z,23.30
2018-02-13T14:23:38.415Z,22.30
2018-02-13T14:26:05.930Z,22.10
2018-02-13T14:28:34.162Z,21.80
2018-02-13T14:31:01.664Z,21.80
2018-02-13T14:33:29.911Z,23.60
2018-02-13T14:35:57.412Z,23.50
2018-02-13T14:38:25.672Z,25.10
2018-02-13T14:40:53.939Z,24.10
2018-02-13T14:43:21.403Z,24.10
2018-02-13T14:45:49.666Z,24.60
2018-02-13T14:48:17.137Z,24.40
2018-02-13T14:50:45.399Z,23.30
2018-02-13T14:53:12.885Z,23.20
2018-02-13T14:55:41.142Z,22.80
2018-02-13T14:58:08.614Z,22.80
2018-02-13T15:00:36.951Z,22.30
2018-02-13T15:03:04.432Z,22.20
2018-02-13T15:05:31.921Z,22.50
2018-02-13T15:07:59.410Z,22.60
2018-02-13T15:10:26.901Z,23.10
2018-02-13T15:12:54.429Z,23.80
2018-02-13T15:15:25.509Z,23.30
2018-02-13T15:18:02.951Z,23.10
2018-02-13T15:20:30.418Z,24.00
2018-02-13T15:22:57.931Z,23.90
2018-02-13T15:25:26.167Z,24.40
2018-02-13T15:27:53.686Z,24.40
2018-02-13T15:30:21.187Z,24.30
2018-02-13T15:32:48.840Z,25.20
2018-02-13T15:35:16.318Z,25.80
2018-02-13T15:37:43.788Z,28.30
2018-02-13T15:40:12.051Z,28.50
2018-02-13T15:42:40.367Z,28.50
2018-02-13T15:45:07.822Z,29.20
2018-02-13T15:47:45.238Z,30.00
2018-02-13T15:50:12.692Z,30.60
2018-02-13T15:52:40.183Z,32.00
2018-02-13T15:55:07.675Z,32.50
2018-02-13T15:57:35.914Z,33.40
2018-02-13T16:00:03.423Z,33.40
2018-02-13T16:02:30.884Z,33.00
2018-02-13T16:04:58.382Z,33.70
2018-02-13T16:07:25.847Z,33.90
2018-02-13T16:09:53.390Z,35.20
2018-02-13T16:12:20.808Z,34.80
2018-02-13T16:14:48.313Z,35.10
2018-02-13T16:17:15.780Z,35.80
2018-02-13T16:19:43.269Z,36.70
2018-02-13T16:22:11.502Z,37.40
2018-02-13T16:24:38.998Z,37.40
2018-02-13T16:27:07.267Z,37.20
2018-02-13T16:29:34.729Z,37.20
2018-02-13T16:32:02.963Z,37.40
2018-02-13T16:34:30.462Z,37.40
2018-02-13T16:36:58.694Z,37.80
2018-02-13T16:39:26.191Z,37.80
2018-02-13T16:41:54.415Z,38.80
2018-02-13T16:44:21.929Z,38.70
2018-02-13T16:46:50.337Z,39.60
2018-02-13T16:49:17.800Z,39.60
2018-02-13T16:51:45.345Z,40.00
2018-02-13T16:54:12.805Z,40.20
2018-02-13T16:56:40.390Z,40.50
2018-02-13T16:59:07.841Z,41.10
2018-02-13T17:01:35.344Z,41.60
2018-02-13T17:04:02.791Z,42.40
2018-02-13T17:06:30.318Z,43.00
2018-02-13T17:08:57.774Z,43.50
2018-02-13T17:11:25.306Z,43.50
2018-02-13T17:13:52.794Z,44.00
2018-02-13T17:16:20.251Z,44.70
2018-02-13T17:18:47.757Z,45.10
2018-02-13T17:21:16.003Z,46.90
2018-02-13T17:23:43.495Z,46.90
2018-02-13T17:26:10.960Z,47.50
2018-02-13T17:28:39.206Z,48.90
2018-02-13T17:31:06.679Z,48.90
2018-02-13T17:33:35.180Z,51.10
2018-02-13T17:36:02.663Z,50.50
2018-02-13T17:38:30.119Z,51.60
2018-02-13T17:40:57.618Z,52.40
2018-02-13T17:43:25.084Z,53.60
2018-02-13T17:45:53.348Z,56.20
2018-02-13T17:48:20.855Z,56.10
2018-02-13T17:50:48.319Z,57.40
2018-02-13T17:53:15.793Z,58.20
2018-02-13T17:55:43.299Z,58.70
2018-02-13T17:58:11.536Z,59.70
2018-02-13T18:00:39.037Z,59.60
2018-02-13T18:03:07.274Z,61.10
2018-02-13T18:05:34.794Z,61.00
2018-02-13T18:08:02.259Z,60.70
2018-02-13T18:10:29.780Z,61.40
2018-02-13T18:12:58.042Z,62.70
2018-02-13T18:15:25.581Z,62.70
2018-02-13T18:17:53.077Z,62.70
2018-02-13T18:20:21.315Z,64.00
2018-02-13T18:22:48.816Z,64.00
2018-02-13T18:25:17.095Z,64.80
2018-02-13T18:27:45.396Z,65.50
2018-02-13T18:30:12.890Z,65.50
2018-02-13T18:32:40.389Z,65.80
2018-02-13T18:35:08.628Z,66.10
2018-02-13T18:37:36.133Z,66.00
2018-02-13T18:40:03.620Z,66.20
2018-02-13T18:42:31.138Z,66.40
2018-02-13T18:44:59.408Z,67.00
2018-02-13T18:47:27.709Z,67.10
2018-02-13T18:49:55.248Z,67.10
2018-02-13T18:54:50.204Z,67.70
2018-02-13T18:57:17.742Z,67.90
2018-02-13T18:59:45.221Z,68.00
2018-02-13T19:02:12.839Z,67.60
2018-02-13T19:04:41.087Z,68.20
2018-02-13T19:07:08.585Z,68.20
2018-02-13T19:09:36.097Z,68.20
2018-02-13T19:12:03.625Z,68.10
2018-02-13T19:14:31.125Z,68.40
2018-02-13T19:19:26.130Z,69.40
2018-02-13T19:21:53.612Z,70.00
2018-02-13T19:24:21.206Z,70.50
2018-02-13T19:26:48.708Z,71.20
2018-02-13T19:29:16.225Z,71.70
2018-02-13T19:31:43.692Z,71.80
2018-02-13T19:34:11.200Z,71.90
2018-02-13T19:36:40.332Z,71.90
2018-02-13T19:39:07.844Z,71.90
2018-02-13T19:41:35.323Z,71.70
2018-02-13T19:44:02.877Z,71.50
2018-02-13T19:46:30.323Z,71.50
2018-02-13T19:48:57.813Z,71.40
2018-02-13T19:51:25.329Z,71.10
2018-02-13T19:53:52.962Z,72.00
2018-02-13T19:56:20.468Z,71.30
2018-02-13T19:58:48.716Z,73.60
2018-02-13T20:01:16.233Z,73.50
2018-02-13T20:03:43.730Z,73.70
2018-02-13T20:06:12.112Z,74.60
2018-02-13T20:08:39.580Z,74.60
2018-02-13T20:11:07.092Z,74.40
2018-02-13T20:13:34.589Z,74.10
2018-02-13T20:16:02.071Z,73.50
2018-02-13T20:18:30.315Z,74.60
2018-02-13T20:20:57.938Z,74.50
2018-02-13T20:23:25.409Z,75.10
2018-02-13T20:25:52.897Z,76.00
2018-02-13T20:28:20.517Z,75.50
2018-02-13T20:30:47.997Z,75.60
2018-02-13T20:33:15.517Z,76.50
2018-02-13T20:35:43.020Z,76.40
2018-02-13T20:38:11.311Z,76.50
2018-02-13T20:40:38.824Z,76.50
2018-02-13T20:43:06.334Z,77.00
2018-02-13T20:45:33.849Z,76.30
2018-02-13T20:48:01.351Z,75.50
2018-02-13T20:50:28.836Z,75.20
2018-02-13T20:52:57.131Z,74.50
2018-02-13T20:55:24.606Z,74.50
2018-02-13T20:57:52.146Z,74.40
2018-02-13T21:00:19.643Z,74.60
2018-02-13T21:02:47.156Z,75.70
2018-02-13T21:05:14.638Z,74.70
2018-02-13T21:07:42.129Z,74.00
2018-02-13T21:10:09.599Z,73.70
2018-02-13T21:12:37.885Z,72.90
2018-02-13T21:15:06.132Z,73.50
2018-02-13T21:17:33.658Z,73.50
2018-02-13T21:20:01.135Z,73.60
2018-02-13T21:22:28.649Z,73.30
2018-02-13T21:24:56.126Z,73.00
2018-02-13T21:27:23.639Z,72.80
2018-02-13T21:29:51.115Z,73.10
2018-02-13T21:32:19.391Z,73.40
2018-02-13T21:34:47.631Z,73.00
2018-02-13T21:37:15.140Z,72.90
2018-02-13T21:39:42.614Z,73.20
2018-02-13T21:42:10.162Z,73.50
2018-02-13T21:44:37.638Z,73.60
2018-02-13T21:47:05.152Z,73.40
2018-02-13T21:49:33.410Z,73.40
2018-02-13T21:52:00.908Z,73.40
2018-02-13T21:54:28.471Z,73.00
2018-02-13T21:56:55.969Z,73.00
2018-02-13T21:59:23.591Z,73.00
2018-02-13T22:01:51.120Z,73.00
2018-02-13T22:04:19.369Z,72.30
2018-02-13T22:06:46.868Z,72.20
2018-02-13T22:09:14.361Z,73.50
2018-02-13T22:11:41.844Z,72.70
2018-02-13T22:14:09.367Z,72.60
2018-02-13T22:16:36.842Z,72.70
2018-02-13T22:19:04.355Z,73.20
2018-02-13T22:21:32.598Z,74.30
2018-02-13T22:24:00.095Z,74.30
2018-02-13T22:26:27.584Z,73.70
2018-02-13T22:28:55.132Z,74.10
2018-02-13T22:31:22.609Z,75.00
2018-02-13T22:33:50.139Z,75.00
2018-02-13T22:36:17.627Z,75.00
2018-02-13T22:38:45.136Z,75.40
2018-02-13T22:41:13.401Z,74.90
2018-02-13T22:43:41.904Z,74.60
2018-02-13T22:46:09.385Z,74.50
2018-02-13T22:48:36.867Z,75.10
2018-02-13T22:51:04.393Z,74.90
2018-02-13T22:53:31.945Z,75.20
2018-02-13T22:55:59.454Z,75.70
2018-02-13T22:58:26.959Z,76.40
2018-02-13T23:00:54.521Z,76.80
2018-02-13T23:03:21.995Z,77.30
2018-02-13T23:05:49.511Z,78.00
2018-02-13T23:08:17.739Z,78.50
2018-02-13T23:10:45.257Z,78.50
2018-02-13T23:13:12.735Z,78.90
2018-02-13T23:15:40.231Z,79.30
2018-02-13T23:18:07.710Z,79.50
2018-02-13T23:20:35.973Z,80.10
2018-02-13T23:23:03.443Z,79.80
2018-02-13T23:25:31.751Z,80.00
2018-02-13T23:27:59.228Z,80.00
2018-02-13T23:30:26.779Z,79.80
2018-02-13T23:32:54.256Z,80.10
2018-02-13T23:35:21.735Z,80.30
2018-02-13T23:37:49.259Z,80.70
2018-02-13T23:40:16.735Z,81.00
2018-02-13T23:42:44.252Z,81.40
2018-02-13T23:45:11.735Z,81.50
2018-02-13T23:47:39.299Z,81.70
2018-02-13T23:50:06.774Z,81.90
2018-02-13T23:52:34.277Z,82.40
2018-02-13T23:55:02.523Z,82.90
2018-02-13T23:57:30.872Z,82.70
2018-02-13T23:59:58.406Z,82.70
